sensor_id;sensor_type;location;lat;lon;timestamp;P1;durP1;ratioP1;P2;durP2;ratioP2
39950;SDS011;25629;51.444;-2.606;2022-09-09T00:01:17;8.20;;;3.88;;
39950;SDS011;25629;51.444;-2.606;2022-09-09T00:04:05;5.72;;;3.83;;
39950;SDS011;25629;51.444;-2.606;2022-09-09T00:06:43;5.35;;;3.65;;
39950;SDS011;25629;51.444;-2.606;2022-09-09T00:09:17;4.60;;;3.45;;
39950;SDS011;25629;51.444;-2.606;2022-09-09T00:16:54;5.35;;;3.03;;
39950;SDS011;25629;51.444;-2.606;2022-09-09T00:19:36;6.35;;;2.55;;
39950;SDS011;25629;51.444;-2.606;2022-09-09T00:22:18;3.65;;;1.92;;
39950;SDS011;25629;51.444;-2.606;2022-09-09T00:24:55;2.50;;;1.40;;
39950;SDS011;25629;51.444;-2.606;2022-09-09T00:27:28;4.88;;;1.30;;
39950;SDS011;25629;51.444;-2.606;2022-09-09T00:32:53;4.07;;;0.98;;
39950;SDS011;25629;51.444;-2.606;2022-09-09T00:35:40;3.45;;;0.80;;
39950;SDS011;25629;51.444;-2.606;2022-09-09T00:40:41;3.22;;;0.80;;
39950;SDS011;25629;51.444;-2.606;2022-09-09T00:43:30;5.38;;;1.15;;
39950;SDS011;25629;51.444;-2.606;2022-09-09T00:48:32;2.08;;;0.73;;
39950;SDS011;25629;51.444;-2.606;2022-09-09T00:51:13;3.22;;;0.90;;
39950;SDS011;25629;51.444;-2.606;2022-09-09T00:59:45;6.78;;;1.23;;
39950;SDS011;25629;51.444;-2.606;2022-09-09T01:02:16;2.72;;;1.10;;
39950;SDS011;25629;51.444;-2.606;2022-09-09T01:05:12;1.55;;;1.00;;
39950;SDS011;25629;51.444;-2.606;2022-09-09T01:07:51;1.48;;;0.82;;
39950;SDS011;25629;51.444;-2.606;2022-09-09T01:10:26;2.58;;;0.98;;
39950;SDS011;25629;51.444;-2.606;2022-09-09T01:13:25;2.00;;;0.88;;
39950;SDS011;25629;51.444;-2.606;2022-09-09T01:15:55;3.85;;;0.90;;
39950;SDS011;25629;51.444;-2.606;2022-09-09T01:18:26;3.97;;;0.90;;
39950;SDS011;25629;51.444;-2.606;2022-09-09T01:26:48;4.75;;;1.20;;
39950;SDS011;25629;51.444;-2.606;2022-09-09T01:29:16;1.88;;;1.00;;
39950;SDS011;25629;51.444;-2.606;2022-09-09T01:32:35;2.45;;;0.70;;
39950;SDS011;25629;51.444;-2.606;2022-09-09T01:35:03;2.30;;;0.77;;
39950;SDS011;25629;51.444;-2.606;2022-09-09T01:37:30;1.65;;;0.80;;
39950;SDS011;25629;51.444;-2.606;2022-09-09T01:39:56;2.42;;;0.63;;
39950;SDS011;25629;51.444;-2.606;2022-09-09T01:44:47;3.03;;;0.90;;
39950;SDS011;25629;51.444;-2.606;2022-09-09T01:49:39;2.67;;;0.80;;
39950;SDS011;25629;51.444;-2.606;2022-09-09T01:52:05;3.05;;;0.65;;
39950;SDS011;25629;51.444;-2.606;2022-09-09T01:54:31;13.35;;;1.77;;
39950;SDS011;25629;51.444;-2.606;2022-09-09T02:00:04;3.92;;;0.90;;
39950;SDS011;25629;51.444;-2.606;2022-09-09T02:08:11;3.55;;;1.25;;
39950;SDS011;25629;51.444;-2.606;2022-09-09T02:13:14;2.05;;;0.77;;
39950;SDS011;25629;51.444;-2.606;2022-09-09T02:15:44;3.80;;;0.60;;
39950;SDS011;25629;51.444;-2.606;2022-09-09T02:18:39;2.40;;;0.57;;
39950;SDS011;25629;51.444;-2.606;2022-09-09T02:21:09;3.22;;;0.50;;
39950;SDS011;25629;51.444;-2.606;2022-09-09T02:23:37;4.80;;;0.60;;
39950;SDS011;25629;51.444;-2.606;2022-09-09T02:26:06;2.75;;;0.57;;
39950;SDS011;25629;51.444;-2.606;2022-09-09T02:28:35;4.65;;;0.50;;
39950;SDS011;25629;51.444;-2.606;2022-09-09T02:31:05;1.58;;;0.60;;
39950;SDS011;25629;51.444;-2.606;2022-09-09T02:33:33;2.45;;;0.50;;
39950;SDS011;25629;51.444;-2.606;2022-09-09T02:36:05;1.38;;;0.70;;
39950;SDS011;25629;51.444;-2.606;2022-09-09T02:38:34;2.50;;;0.52;;
39950;SDS011;25629;51.444;-2.606;2022-09-09T02:41:04;2.10;;;0.60;;
39950;SDS011;25629;51.444;-2.606;2022-09-09T02:43:34;1.13;;;0.70;;
39950;SDS011;25629;51.444;-2.606;2022-09-09T02:46:08;1.85;;;0.68;;
39950;SDS011;25629;51.444;-2.606;2022-09-09T02:51:35;4.10;;;0.65;;
39950;SDS011;25629;51.444;-2.606;2022-09-09T02:56:42;3.33;;;0.73;;
39950;SDS011;25629;51.444;-2.606;2022-09-09T02:59:16;1.83;;;0.40;;
39950;SDS011;25629;51.444;-2.606;2022-09-09T03:01:42;3.22;;;0.70;;
39950;SDS011;25629;51.444;-2.606;2022-09-09T03:04:09;2.78;;;0.90;;
39950;SDS011;25629;51.444;-2.606;2022-09-09T03:06:35;2.05;;;0.52;;
39950;SDS011;25629;51.444;-2.606;2022-09-09T03:09:00;6.32;;;0.68;;
39950;SDS011;25629;51.444;-2.606;2022-09-09T03:11:27;5.32;;;0.80;;
39950;SDS011;25629;51.444;-2.606;2022-09-09T03:18:47;3.78;;;0.82;;
39950;SDS011;25629;51.444;-2.606;2022-09-09T03:21:12;2.90;;;0.75;;
39950;SDS011;25629;51.444;-2.606;2022-09-09T03:23:39;3.97;;;0.60;;
39950;SDS011;25629;51.444;-2.606;2022-09-09T03:26:05;1.45;;;0.40;;
39950;SDS011;25629;51.444;-2.606;2022-09-09T03:31:03;3.85;;;0.70;;
39950;SDS011;25629;51.444;-2.606;2022-09-09T03:33:30;2.22;;;0.77;;
39950;SDS011;25629;51.444;-2.606;2022-09-09T03:38:25;4.07;;;0.60;;
39950;SDS011;25629;51.444;-2.606;2022-09-09T03:40:55;2.50;;;0.50;;
39950;SDS011;25629;51.444;-2.606;2022-09-09T03:43:25;2.72;;;0.90;;
39950;SDS011;25629;51.444;-2.606;2022-09-09T03:45:52;3.22;;;0.85;;
39950;SDS011;25629;51.444;-2.606;2022-09-09T03:48:21;2.53;;;0.75;;
39950;SDS011;25629;51.444;-2.606;2022-09-09T03:50:48;3.15;;;0.80;;
39950;SDS011;25629;51.444;-2.606;2022-09-09T03:53:16;0.90;;;0.50;;
39950;SDS011;25629;51.444;-2.606;2022-09-09T03:55:44;2.45;;;0.50;;
39950;SDS011;25629;51.444;-2.606;2022-09-09T03:58:12;3.15;;;1.08;;
39950;SDS011;25629;51.444;-2.606;2022-09-09T04:00:39;1.45;;;0.68;;
39950;SDS011;25629;51.444;-2.606;2022-09-09T04:03:10;3.83;;;0.80;;
39950;SDS011;25629;51.444;-2.606;2022-09-09T04:05:38;2.38;;;0.60;;
39950;SDS011;25629;51.444;-2.606;2022-09-09T04:08:08;3.20;;;0.63;;
39950;SDS011;25629;51.444;-2.606;2022-09-09T04:10:34;1.80;;;0.70;;
39950;SDS011;25629;51.444;-2.606;2022-09-09T04:13:03;3.50;;;0.70;;
39950;SDS011;25629;51.444;-2.606;2022-09-09T04:15:29;2.00;;;0.60;;
39950;SDS011;25629;51.444;-2.606;2022-09-09T04:17:55;1.33;;;0.80;;
39950;SDS011;25629;51.444;-2.606;2022-09-09T04:20:21;3.50;;;0.60;;
39950;SDS011;25629;51.444;-2.606;2022-09-09T04:25:13;1.52;;;0.70;;
39950;SDS011;25629;51.444;-2.606;2022-09-09T04:27:39;3.42;;;1.13;;
39950;SDS011;25629;51.444;-2.606;2022-09-09T04:30:05;2.63;;;0.50;;
39950;SDS011;25629;51.444;-2.606;2022-09-09T04:32:35;2.20;;;0.50;;
39950;SDS011;25629;51.444;-2.606;2022-09-09T04:35:02;3.42;;;0.40;;
39950;SDS011;25629;51.444;-2.606;2022-09-09T04:37:28;2.58;;;0.50;;
39950;SDS011;25629;51.444;-2.606;2022-09-09T04:39:54;1.98;;;0.40;;
39950;SDS011;25629;51.444;-2.606;2022-09-09T04:44:45;2.67;;;0.50;;
39950;SDS011;25629;51.444;-2.606;2022-09-09T04:47:11;2.28;;;0.40;;
39950;SDS011;25629;51.444;-2.606;2022-09-09T04:49:37;2.90;;;0.50;;
39950;SDS011;25629;51.444;-2.606;2022-09-09T04:52:03;3.83;;;0.40;;
39950;SDS011;25629;51.444;-2.606;2022-09-09T04:54:29;3.38;;;0.30;;
39950;SDS011;25629;51.444;-2.606;2022-09-09T04:56:55;3.30;;;0.93;;
39950;SDS011;25629;51.444;-2.606;2022-09-09T04:59:21;1.25;;;0.22;;
39950;SDS011;25629;51.444;-2.606;2022-09-09T05:01:47;4.78;;;0.82;;
39950;SDS011;25629;51.444;-2.606;2022-09-09T05:04:13;3.55;;;0.40;;
39950;SDS011;25629;51.444;-2.606;2022-09-09T05:06:41;0.73;;;0.30;;
39950;SDS011;25629;51.444;-2.606;2022-09-09T05:09:07;1.80;;;0.28;;
39950;SDS011;25629;51.444;-2.606;2022-09-09T05:11:33;3.17;;;0.47;;
39950;SDS011;25629;51.444;-2.606;2022-09-09T05:14:03;2.30;;;0.32;;
39950;SDS011;25629;51.444;-2.606;2022-09-09T05:16:29;4.25;;;0.88;;
39950;SDS011;25629;51.444;-2.606;2022-09-09T05:18:56;1.73;;;0.30;;
39950;SDS011;25629;51.444;-2.606;2022-09-09T05:21:23;1.55;;;0.30;;
39950;SDS011;25629;51.444;-2.606;2022-09-09T05:23:51;1.92;;;0.40;;
39950;SDS011;25629;51.444;-2.606;2022-09-09T05:26:18;1.92;;;0.30;;
39950;SDS011;25629;51.444;-2.606;2022-09-09T05:28:46;1.77;;;0.30;;
39950;SDS011;25629;51.444;-2.606;2022-09-09T05:31:13;2.20;;;0.35;;
39950;SDS011;25629;51.444;-2.606;2022-09-09T05:33:41;1.70;;;0.30;;
39950;SDS011;25629;51.444;-2.606;2022-09-09T05:36:12;1.85;;;0.40;;
39950;SDS011;25629;51.444;-2.606;2022-09-09T05:38:40;1.73;;;0.30;;
39950;SDS011;25629;51.444;-2.606;2022-09-09T05:41:06;1.75;;;0.60;;
39950;SDS011;25629;51.444;-2.606;2022-09-09T05:43:33;3.85;;;0.63;;
39950;SDS011;25629;51.444;-2.606;2022-09-09T05:46:06;1.45;;;0.60;;
39950;SDS011;25629;51.444;-2.606;2022-09-09T05:48:34;1.33;;;0.43;;
39950;SDS011;25629;51.444;-2.606;2022-09-09T05:51:02;3.67;;;1.13;;
39950;SDS011;25629;51.444;-2.606;2022-09-09T05:53:29;2.42;;;0.40;;
39950;SDS011;25629;51.444;-2.606;2022-09-09T05:58:32;1.42;;;0.40;;
39950;SDS011;25629;51.444;-2.606;2022-09-09T06:01:05;1.92;;;0.38;;
39950;SDS011;25629;51.444;-2.606;2022-09-09T06:03:34;4.10;;;0.32;;
39950;SDS011;25629;51.444;-2.606;2022-09-09T06:06:01;6.10;;;0.60;;
39950;SDS011;25629;51.444;-2.606;2022-09-09T06:08:30;6.72;;;1.25;;
39950;SDS011;25629;51.444;-2.606;2022-09-09T06:11:01;4.32;;;0.40;;
39950;SDS011;25629;51.444;-2.606;2022-09-09T06:13:28;2.08;;;0.43;;
39950;SDS011;25629;51.444;-2.606;2022-09-09T06:15:54;2.55;;;0.38;;
39950;SDS011;25629;51.444;-2.606;2022-09-09T06:18:20;5.53;;;0.90;;
39950;SDS011;25629;51.444;-2.606;2022-09-09T06:23:21;3.50;;;0.43;;
39950;SDS011;25629;51.444;-2.606;2022-09-09T06:25:47;1.33;;;0.35;;
39950;SDS011;25629;51.444;-2.606;2022-09-09T06:28:14;2.00;;;0.40;;
39950;SDS011;25629;51.444;-2.606;2022-09-09T06:30:40;2.28;;;0.35;;
39950;SDS011;25629;51.444;-2.606;2022-09-09T06:33:06;1.27;;;0.43;;
39950;SDS011;25629;51.444;-2.606;2022-09-09T06:35:32;2.50;;;0.40;;
39950;SDS011;25629;51.444;-2.606;2022-09-09T06:40:24;4.88;;;0.70;;
39950;SDS011;25629;51.444;-2.606;2022-09-09T06:42:50;2.30;;;0.60;;
39950;SDS011;25629;51.444;-2.606;2022-09-09T06:47:41;5.60;;;1.48;;
39950;SDS011;25629;51.444;-2.606;2022-09-09T06:50:08;3.67;;;0.63;;
39950;SDS011;25629;51.444;-2.606;2022-09-09T06:52:35;1.63;;;0.40;;
39950;SDS011;25629;51.444;-2.606;2022-09-09T06:55:01;3.35;;;1.42;;
39950;SDS011;25629;51.444;-2.606;2022-09-09T06:57:27;2.45;;;0.60;;
39950;SDS011;25629;51.444;-2.606;2022-09-09T06:59:53;5.90;;;0.60;;
39950;SDS011;25629;51.444;-2.606;2022-09-09T07:04:45;4.88;;;0.70;;
39950;SDS011;25629;51.444;-2.606;2022-09-09T07:07:10;4.07;;;0.60;;
39950;SDS011;25629;51.444;-2.606;2022-09-09T07:09:38;2.42;;;0.50;;
39950;SDS011;25629;51.444;-2.606;2022-09-09T07:12:05;5.05;;;0.80;;
39950;SDS011;25629;51.444;-2.606;2022-09-09T07:14:31;4.40;;;0.57;;
39950;SDS011;25629;51.444;-2.606;2022-09-09T07:16:59;3.58;;;0.50;;
39950;SDS011;25629;51.444;-2.606;2022-09-09T07:19:25;3.38;;;0.50;;
39950;SDS011;25629;51.444;-2.606;2022-09-09T07:21:51;4.63;;;0.45;;
39950;SDS011;25629;51.444;-2.606;2022-09-09T07:26:42;5.20;;;0.65;;
39950;SDS011;25629;51.444;-2.606;2022-09-09T07:29:09;1.65;;;0.40;;
39950;SDS011;25629;51.444;-2.606;2022-09-09T07:34:02;3.35;;;0.68;;
39950;SDS011;25629;51.444;-2.606;2022-09-09T07:36:32;6.65;;;0.90;;
39950;SDS011;25629;51.444;-2.606;2022-09-09T07:39:00;5.57;;;1.55;;
39950;SDS011;25629;51.444;-2.606;2022-09-09T07:41:30;2.97;;;1.00;;
39950;SDS011;25629;51.444;-2.606;2022-09-09T07:43:57;7.43;;;1.10;;
39950;SDS011;25629;51.444;-2.606;2022-09-09T07:46:24;3.92;;;0.82;;
39950;SDS011;25629;51.444;-2.606;2022-09-09T07:48:52;5.65;;;0.52;;
39950;SDS011;25629;51.444;-2.606;2022-09-09T07:51:24;6.30;;;0.60;;
39950;SDS011;25629;51.444;-2.606;2022-09-09T07:53:53;3.70;;;0.50;;
39950;SDS011;25629;51.444;-2.606;2022-09-09T07:56:20;1.65;;;0.52;;
39950;SDS011;25629;51.444;-2.606;2022-09-09T07:58:49;1.05;;;0.38;;
39950;SDS011;25629;51.444;-2.606;2022-09-09T08:01:17;3.92;;;0.50;;
39950;SDS011;25629;51.444;-2.606;2022-09-09T08:03:45;0.70;;;0.30;;
39950;SDS011;25629;51.444;-2.606;2022-09-09T08:06:12;1.92;;;0.68;;
39950;SDS011;25629;51.444;-2.606;2022-09-09T08:08:39;3.25;;;0.50;;
39950;SDS011;25629;51.444;-2.606;2022-09-09T08:11:11;1.90;;;0.30;;
39950;SDS011;25629;51.444;-2.606;2022-09-09T08:13:39;1.13;;;0.30;;
39950;SDS011;25629;51.444;-2.606;2022-09-09T08:16:06;2.30;;;0.55;;
39950;SDS011;25629;51.444;-2.606;2022-09-09T08:18:34;1.02;;;0.30;;
39950;SDS011;25629;51.444;-2.606;2022-09-09T08:23:40;0.65;;;0.20;;
39950;SDS011;25629;51.444;-2.606;2022-09-09T08:26:11;2.65;;;0.28;;
39950;SDS011;25629;51.444;-2.606;2022-09-09T08:28:39;0.80;;;0.17;;
39950;SDS011;25629;51.444;-2.606;2022-09-09T08:31:12;2.22;;;0.30;;
39950;SDS011;25629;51.444;-2.606;2022-09-09T08:33:40;1.92;;;0.20;;
39950;SDS011;25629;51.444;-2.606;2022-09-09T08:36:06;0.98;;;0.10;;
39950;SDS011;25629;51.444;-2.606;2022-09-09T08:38:35;1.30;;;0.30;;
39950;SDS011;25629;51.444;-2.606;2022-09-09T08:43:46;0.70;;;0.17;;
39950;SDS011;25629;51.444;-2.606;2022-09-09T08:46:21;0.73;;;0.40;;
39950;SDS011;25629;51.444;-2.606;2022-09-09T08:49:13;1.52;;;0.20;;
39950;SDS011;25629;51.444;-2.606;2022-09-09T08:52:01;2.88;;;0.40;;
39950;SDS011;25629;51.444;-2.606;2022-09-09T08:54:28;1.88;;;0.20;;
39950;SDS011;25629;51.444;-2.606;2022-09-09T08:56:59;1.25;;;0.20;;
39950;SDS011;25629;51.444;-2.606;2022-09-09T09:01:54;2.38;;;0.35;;
39950;SDS011;25629;51.444;-2.606;2022-09-09T09:07:17;0.98;;;0.15;;
39950;SDS011;25629;51.444;-2.606;2022-09-09T09:12:24;0.70;;;0.20;;
39950;SDS011;25629;51.444;-2.606;2022-09-09T09:14:52;0.52;;;0.20;;
39950;SDS011;25629;51.444;-2.606;2022-09-09T09:17:20;2.50;;;0.50;;
39950;SDS011;25629;51.444;-2.606;2022-09-09T09:19:50;3.28;;;2.00;;
39950;SDS011;25629;51.444;-2.606;2022-09-09T09:27:33;1.90;;;0.20;;
39950;SDS011;25629;51.444;-2.606;2022-09-09T09:30:04;2.05;;;0.40;;
39950;SDS011;25629;51.444;-2.606;2022-09-09T09:32:38;2.00;;;0.25;;
39950;SDS011;25629;51.444;-2.606;2022-09-09T09:35:16;0.63;;;0.10;;
39950;SDS011;25629;51.444;-2.606;2022-09-09T09:40:09;1.08;;;0.30;;
39950;SDS011;25629;51.444;-2.606;2022-09-09T09:42:54;1.55;;;0.30;;
39950;SDS011;25629;51.444;-2.606;2022-09-09T09:45:42;1.58;;;0.30;;
39950;SDS011;25629;51.444;-2.606;2022-09-09T09:48:12;3.40;;;0.30;;
39950;SDS011;25629;51.444;-2.606;2022-09-09T09:51:08;1.00;;;0.30;;
39950;SDS011;25629;51.444;-2.606;2022-09-09T09:53:36;1.30;;;0.30;;
39950;SDS011;25629;51.444;-2.606;2022-09-09T09:56:04;2.75;;;0.25;;
39950;SDS011;25629;51.444;-2.606;2022-09-09T09:58:33;2.63;;;0.30;;
39950;SDS011;25629;51.444;-2.606;2022-09-09T10:01:25;2.53;;;0.35;;
39950;SDS011;25629;51.444;-2.606;2022-09-09T10:04:29;2.22;;;0.57;;
39950;SDS011;25629;51.444;-2.606;2022-09-09T10:06:48;1.55;;;0.32;;
39950;SDS011;25629;51.444;-2.606;2022-09-09T10:09:28;2.30;;;0.43;;
39950;SDS011;25629;51.444;-2.606;2022-09-09T10:18:15;0.93;;;0.30;;
39950;SDS011;25629;51.444;-2.606;2022-09-09T10:20:45;0.43;;;0.20;;
39950;SDS011;25629;51.444;-2.606;2022-09-09T10:26:18;3.10;;;0.32;;
39950;SDS011;25629;51.444;-2.606;2022-09-09T10:35:03;1.98;;;0.60;;
39950;SDS011;25629;51.444;-2.606;2022-09-09T10:37:46;1.77;;;0.28;;
39950;SDS011;25629;51.444;-2.606;2022-09-09T10:51:13;2.65;;;0.60;;
39950;SDS011;25629;51.444;-2.606;2022-09-09T10:57:11;1.63;;;0.40;;
39950;SDS011;25629;51.444;-2.606;2022-09-09T10:59:47;2.15;;;0.40;;
39950;SDS011;25629;51.444;-2.606;2022-09-09T11:02:24;1.08;;;0.38;;
39950;SDS011;25629;51.444;-2.606;2022-09-09T11:04:57;3.35;;;0.52;;
39950;SDS011;25629;51.444;-2.606;2022-09-09T11:07:32;2.55;;;0.70;;
39950;SDS011;25629;51.444;-2.606;2022-09-09T11:10:17;0.68;;;0.40;;
39950;SDS011;25629;51.444;-2.606;2022-09-09T11:12:49;2.22;;;0.68;;
39950;SDS011;25629;51.444;-2.606;2022-09-09T11:15:20;1.33;;;0.40;;
39950;SDS011;25629;51.444;-2.606;2022-09-09T11:17:56;1.33;;;0.32;;
39950;SDS011;25629;51.444;-2.606;2022-09-09T11:20:26;2.03;;;0.50;;
39950;SDS011;25629;51.444;-2.606;2022-09-09T11:25:44;3.35;;;0.40;;
39950;SDS011;25629;51.444;-2.606;2022-09-09T11:39:05;3.15;;;0.50;;
39950;SDS011;25629;51.444;-2.606;2022-09-09T11:42:33;0.70;;;0.25;;
39950;SDS011;25629;51.444;-2.606;2022-09-09T11:44:52;2.92;;;0.40;;
39950;SDS011;25629;51.444;-2.606;2022-09-09T11:47:26;5.50;;;0.73;;
39950;SDS011;25629;51.444;-2.606;2022-09-09T11:52:42;1.73;;;0.65;;
39950;SDS011;25629;51.444;-2.606;2022-09-09T11:57:45;0.80;;;0.38;;
39950;SDS011;25629;51.444;-2.606;2022-09-09T12:00:30;3.67;;;0.82;;
39950;SDS011;25629;51.444;-2.606;2022-09-09T12:03:02;1.50;;;0.57;;
39950;SDS011;25629;51.444;-2.606;2022-09-09T12:05:42;2.00;;;0.60;;
39950;SDS011;25629;51.444;-2.606;2022-09-09T12:08:11;2.33;;;0.60;;
39950;SDS011;25629;51.444;-2.606;2022-09-09T12:10:53;2.90;;;0.55;;
39950;SDS011;25629;51.444;-2.606;2022-09-09T12:13:25;3.92;;;0.70;;
39950;SDS011;25629;51.444;-2.606;2022-09-09T12:15:53;3.63;;;0.50;;
39950;SDS011;25629;51.444;-2.606;2022-09-09T12:18:31;2.80;;;0.55;;
39950;SDS011;25629;51.444;-2.606;2022-09-09T12:26:36;2.47;;;0.60;;
39950;SDS011;25629;51.444;-2.606;2022-09-09T12:32:25;2.80;;;0.60;;
39950;SDS011;25629;51.444;-2.606;2022-09-09T12:34:53;3.22;;;0.88;;
39950;SDS011;25629;51.444;-2.606;2022-09-09T12:40:01;3.42;;;0.52;;
39950;SDS011;25629;51.444;-2.606;2022-09-09T12:42:28;3.63;;;0.45;;
39950;SDS011;25629;51.444;-2.606;2022-09-09T12:47:37;2.13;;;0.63;;
39950;SDS011;25629;51.444;-2.606;2022-09-09T12:50:24;1.35;;;0.50;;
39950;SDS011;25629;51.444;-2.606;2022-09-09T12:52:59;1.48;;;0.57;;
39950;SDS011;25629;51.444;-2.606;2022-09-09T12:55:30;5.13;;;0.60;;
39950;SDS011;25629;51.444;-2.606;2022-09-09T12:57:58;2.03;;;0.45;;
39950;SDS011;25629;51.444;-2.606;2022-09-09T13:00:26;1.48;;;0.60;;
39950;SDS011;25629;51.444;-2.606;2022-09-09T13:02:55;1.67;;;0.70;;
39950;SDS011;25629;51.444;-2.606;2022-09-09T13:05:25;2.00;;;0.77;;
39950;SDS011;25629;51.444;-2.606;2022-09-09T13:08:01;6.10;;;1.23;;
39950;SDS011;25629;51.444;-2.606;2022-09-09T13:10:29;3.28;;;0.80;;
39950;SDS011;25629;51.444;-2.606;2022-09-09T13:13:00;3.50;;;0.80;;
39950;SDS011;25629;51.444;-2.606;2022-09-09T13:15:27;2.55;;;1.02;;
39950;SDS011;25629;51.444;-2.606;2022-09-09T13:17:58;3.58;;;1.08;;
39950;SDS011;25629;51.444;-2.606;2022-09-09T13:20:26;3.90;;;0.90;;
39950;SDS011;25629;51.444;-2.606;2022-09-09T13:22:53;2.40;;;1.00;;
39950;SDS011;25629;51.444;-2.606;2022-09-09T13:25:24;3.33;;;1.00;;
39950;SDS011;25629;51.444;-2.606;2022-09-09T13:28:02;2.78;;;0.90;;
39950;SDS011;25629;51.444;-2.606;2022-09-09T13:30:33;3.53;;;1.17;;
39950;SDS011;25629;51.444;-2.606;2022-09-09T13:35:35;3.63;;;0.90;;
39950;SDS011;25629;51.444;-2.606;2022-09-09T13:38:13;3.38;;;0.77;;
39950;SDS011;25629;51.444;-2.606;2022-09-09T13:40:40;2.95;;;0.65;;
39950;SDS011;25629;51.444;-2.606;2022-09-09T13:43:19;2.13;;;0.93;;
39950;SDS011;25629;51.444;-2.606;2022-09-09T13:45:57;6.13;;;0.90;;
39950;SDS011;25629;51.444;-2.606;2022-09-09T13:48:25;0.93;;;0.55;;
39950;SDS011;25629;51.444;-2.606;2022-09-09T13:50:55;3.60;;;0.60;;
39950;SDS011;25629;51.444;-2.606;2022-09-09T13:53:25;3.45;;;0.60;;
39950;SDS011;25629;51.444;-2.606;2022-09-09T13:55:51;2.15;;;0.60;;
39950;SDS011;25629;51.444;-2.606;2022-09-09T13:58:17;3.08;;;0.98;;
39950;SDS011;25629;51.444;-2.606;2022-09-09T14:00:44;3.05;;;0.90;;
39950;SDS011;25629;51.444;-2.606;2022-09-09T14:03:10;2.05;;;0.68;;
39950;SDS011;25629;51.444;-2.606;2022-09-09T14:05:36;2.92;;;0.90;;
39950;SDS011;25629;51.444;-2.606;2022-09-09T14:08:06;3.17;;;0.95;;
39950;SDS011;25629;51.444;-2.606;2022-09-09T14:10:36;2.97;;;0.98;;
39950;SDS011;25629;51.444;-2.606;2022-09-09T14:13:02;0.98;;;0.60;;
39950;SDS011;25629;51.444;-2.606;2022-09-09T14:15:28;9.10;;;1.88;;
39950;SDS011;25629;51.444;-2.606;2022-09-09T14:17:54;3.40;;;1.10;;
39950;SDS011;25629;51.444;-2.606;2022-09-09T14:20:20;2.10;;;0.70;;
39950;SDS011;25629;51.444;-2.606;2022-09-09T14:22:45;2.80;;;0.73;;
39950;SDS011;25629;51.444;-2.606;2022-09-09T14:25:11;0.98;;;0.60;;
39950;SDS011;25629;51.444;-2.606;2022-09-09T14:27:38;2.00;;;0.50;;
39950;SDS011;25629;51.444;-2.606;2022-09-09T14:30:05;3.20;;;0.75;;
39950;SDS011;25629;51.444;-2.606;2022-09-09T14:32:32;1.85;;;0.70;;
39950;SDS011;25629;51.444;-2.606;2022-09-09T14:34:58;2.08;;;0.75;;
39950;SDS011;25629;51.444;-2.606;2022-09-09T14:37:24;1.30;;;0.60;;
39950;SDS011;25629;51.444;-2.606;2022-09-09T14:39:50;1.20;;;0.50;;
39950;SDS011;25629;51.444;-2.606;2022-09-09T14:42:16;1.23;;;0.50;;
39950;SDS011;25629;51.444;-2.606;2022-09-09T14:44:42;2.03;;;0.50;;
39950;SDS011;25629;51.444;-2.606;2022-09-09T14:47:08;2.28;;;0.73;;
39950;SDS011;25629;51.444;-2.606;2022-09-09T14:49:34;2.10;;;0.88;;
39950;SDS011;25629;51.444;-2.606;2022-09-09T14:52:00;2.08;;;0.70;;
39950;SDS011;25629;51.444;-2.606;2022-09-09T14:54:27;2.22;;;0.50;;
39950;SDS011;25629;51.444;-2.606;2022-09-09T14:56:53;1.63;;;0.40;;
39950;SDS011;25629;51.444;-2.606;2022-09-09T14:59:19;6.47;;;0.63;;
39950;SDS011;25629;51.444;-2.606;2022-09-09T15:01:45;0.45;;;0.20;;
39950;SDS011;25629;51.444;-2.606;2022-09-09T15:04:11;2.05;;;0.50;;
39950;SDS011;25629;51.444;-2.606;2022-09-09T15:06:39;2.33;;;0.93;;
39950;SDS011;25629;51.444;-2.606;2022-09-09T15:09:05;1.27;;;0.30;;
39950;SDS011;25629;51.444;-2.606;2022-09-09T15:11:33;1.13;;;0.20;;
39950;SDS011;25629;51.444;-2.606;2022-09-09T15:14:02;2.10;;;0.30;;
39950;SDS011;25629;51.444;-2.606;2022-09-09T15:16:29;0.55;;;0.30;;
39950;SDS011;25629;51.444;-2.606;2022-09-09T15:18:57;3.50;;;1.10;;
39950;SDS011;25629;51.444;-2.606;2022-09-09T15:21:26;1.58;;;0.40;;
39950;SDS011;25629;51.444;-2.606;2022-09-09T15:23:54;2.83;;;0.20;;
39950;SDS011;25629;51.444;-2.606;2022-09-09T15:26:21;1.50;;;0.30;;
39950;SDS011;25629;51.444;-2.606;2022-09-09T15:28:46;0.98;;;0.20;;
39950;SDS011;25629;51.444;-2.606;2022-09-09T15:31:21;2.03;;;0.40;;
39950;SDS011;25629;51.444;-2.606;2022-09-09T15:39:01;1.85;;;0.50;;
39950;SDS011;25629;51.444;-2.606;2022-09-09T15:41:28;2.25;;;0.22;;
39950;SDS011;25629;51.444;-2.606;2022-09-09T15:43:56;2.47;;;0.88;;
39950;SDS011;25629;51.444;-2.606;2022-09-09T15:48:58;2.55;;;0.50;;
39950;SDS011;25629;51.444;-2.606;2022-09-09T15:51:35;2.08;;;0.80;;
39950;SDS011;25629;51.444;-2.606;2022-09-09T15:54:03;2.20;;;0.40;;
39950;SDS011;25629;51.444;-2.606;2022-09-09T15:56:29;1.55;;;0.20;;
39950;SDS011;25629;51.444;-2.606;2022-09-09T15:58:55;1.02;;;0.55;;
39950;SDS011;25629;51.444;-2.606;2022-09-09T16:01:22;1.60;;;0.32;;
39950;SDS011;25629;51.444;-2.606;2022-09-09T16:03:48;3.72;;;0.30;;
39950;SDS011;25629;51.444;-2.606;2022-09-09T16:06:18;2.13;;;0.32;;
39950;SDS011;25629;51.444;-2.606;2022-09-09T16:08:46;0.98;;;0.10;;
39950;SDS011;25629;51.444;-2.606;2022-09-09T16:11:24;1.50;;;0.22;;
39950;SDS011;25629;51.444;-2.606;2022-09-09T16:13:51;5.15;;;0.30;;
39950;SDS011;25629;51.444;-2.606;2022-09-09T16:16:19;2.28;;;0.20;;
39950;SDS011;25629;51.444;-2.606;2022-09-09T16:18:50;1.15;;;0.50;;
39950;SDS011;25629;51.444;-2.606;2022-09-09T16:21:27;3.22;;;0.20;;
39950;SDS011;25629;51.444;-2.606;2022-09-09T16:23:59;1.57;;;0.20;;
39950;SDS011;25629;51.444;-2.606;2022-09-09T16:26:26;1.27;;;0.30;;
39950;SDS011;25629;51.444;-2.606;2022-09-09T16:28:52;2.15;;;0.50;;
39950;SDS011;25629;51.444;-2.606;2022-09-09T16:31:20;2.22;;;0.90;;
39950;SDS011;25629;51.444;-2.606;2022-09-09T16:33:48;1.42;;;0.40;;
39950;SDS011;25629;51.444;-2.606;2022-09-09T16:36:16;2.40;;;0.30;;
39950;SDS011;25629;51.444;-2.606;2022-09-09T16:38:44;0.43;;;0.17;;
39950;SDS011;25629;51.444;-2.606;2022-09-09T16:41:10;0.60;;;0.13;;
39950;SDS011;25629;51.444;-2.606;2022-09-09T16:43:37;1.38;;;0.30;;
39950;SDS011;25629;51.444;-2.606;2022-09-09T16:46:13;2.63;;;0.20;;
39950;SDS011;25629;51.444;-2.606;2022-09-09T16:48:41;2.40;;;1.02;;
39950;SDS011;25629;51.444;-2.606;2022-09-09T16:51:12;2.28;;;1.30;;
39950;SDS011;25629;51.444;-2.606;2022-09-09T16:53:40;1.92;;;0.50;;
39950;SDS011;25629;51.444;-2.606;2022-09-09T16:56:14;3.25;;;0.70;;
39950;SDS011;25629;51.444;-2.606;2022-09-09T16:58:49;2.28;;;0.70;;
39950;SDS011;25629;51.444;-2.606;2022-09-09T17:01:16;2.58;;;0.80;;
39950;SDS011;25629;51.444;-2.606;2022-09-09T17:03:41;3.03;;;0.40;;
39950;SDS011;25629;51.444;-2.606;2022-09-09T17:06:11;3.95;;;0.70;;
39950;SDS011;25629;51.444;-2.606;2022-09-09T17:08:38;2.17;;;0.30;;
39950;SDS011;25629;51.444;-2.606;2022-09-09T17:11:24;3.67;;;0.60;;
39950;SDS011;25629;51.444;-2.606;2022-09-09T17:13:51;1.88;;;1.27;;
39950;SDS011;25629;51.444;-2.606;2022-09-09T17:16:19;2.05;;;0.73;;
39950;SDS011;25629;51.444;-2.606;2022-09-09T17:18:47;3.20;;;0.50;;
39950;SDS011;25629;51.444;-2.606;2022-09-09T17:21:14;5.13;;;1.30;;
39950;SDS011;25629;51.444;-2.606;2022-09-09T17:23:41;2.90;;;0.90;;
39950;SDS011;25629;51.444;-2.606;2022-09-09T17:26:09;2.28;;;0.75;;
39950;SDS011;25629;51.444;-2.606;2022-09-09T17:28:36;5.60;;;1.02;;
39950;SDS011;25629;51.444;-2.606;2022-09-09T17:31:03;3.13;;;0.73;;
39950;SDS011;25629;51.444;-2.606;2022-09-09T17:33:32;2.38;;;1.27;;
39950;SDS011;25629;51.444;-2.606;2022-09-09T17:36:21;3.83;;;1.08;;
39950;SDS011;25629;51.444;-2.606;2022-09-09T17:38:53;4.10;;;1.10;;
39950;SDS011;25629;51.444;-2.606;2022-09-09T17:41:19;1.40;;;0.70;;
39950;SDS011;25629;51.444;-2.606;2022-09-09T17:43:47;2.17;;;1.15;;